sensor_id;sensor_type;location;lat;lon;timestamp;P1;durP1;ratioP1;P2;durP2;ratioP2
10132;SDS011;5106;50.926;7.080;2023-05-31T00:00:03;8.18;;;5.72;;
10132;SDS011;5106;50.926;7.080;2023-05-31T00:02:30;7.78;;;5.82;;
10132;SDS011;5106;50.926;7.080;2023-05-31T00:04:56;8.75;;;5.75;;
10132;SDS011;5106;50.926;7.080;2023-05-31T00:07:21;9.07;;;5.88;;
10132;SDS011;5106;50.926;7.080;2023-05-31T00:09:47;6.88;;;5.43;;
10132;SDS011;5106;50.926;7.080;2023-05-31T00:12:12;7.60;;;5.45;;
10132;SDS011;5106;50.926;7.080;2023-05-31T00:14:38;8.70;;;5.93;;
10132;SDS011;5106;50.926;7.080;2023-05-31T00:17:03;9.00;;;6.13;;
10132;SDS011;5106;50.926;7.080;2023-05-31T00:19:29;6.78;;;5.88;;
10132;SDS011;5106;50.926;7.080;2023-05-31T00:21:55;7.28;;;5.70;;
10132;SDS011;5106;50.926;7.080;2023-05-31T00:24:21;7.38;;;5.72;;
10132;SDS011;5106;50.926;7.080;2023-05-31T00:26:46;6.85;;;5.50;;
10132;SDS011;5106;50.926;7.080;2023-05-31T00:29:12;8.10;;;5.90;;
10132;SDS011;5106;50.926;7.080;2023-05-31T00:31:37;6.13;;;4.85;;
10132;SDS011;5106;50.926;7.080;2023-05-31T00:34:03;8.10;;;5.65;;
10132;SDS011;5106;50.926;7.080;2023-05-31T00:36:28;7.35;;;6.00;;
10132;SDS011;5106;50.926;7.080;2023-05-31T00:38:55;7.20;;;5.40;;
10132;SDS011;5106;50.926;7.080;2023-05-31T00:41:20;7.60;;;5.63;;
10132;SDS011;5106;50.926;7.080;2023-05-31T00:43:46;7.47;;;5.43;;
10132;SDS011;5106;50.926;7.080;2023-05-31T00:46:20;6.90;;;5.75;;
10132;SDS011;5106;50.926;7.080;2023-05-31T00:48:58;7.05;;;5.63;;
10132;SDS011;5106;50.926;7.080;2023-05-31T00:51:25;9.63;;;6.07;;
10132;SDS011;5106;50.926;7.080;2023-05-31T00:53:52;8.15;;;5.72;;
10132;SDS011;5106;50.926;7.080;2023-05-31T00:56:19;7.22;;;5.47;;
10132;SDS011;5106;50.926;7.080;2023-05-31T00:58:46;6.90;;;5.70;;
10132;SDS011;5106;50.926;7.080;2023-05-31T01:01:17;6.40;;;5.60;;
10132;SDS011;5106;50.926;7.080;2023-05-31T01:03:44;8.15;;;5.90;;
10132;SDS011;5106;50.926;7.080;2023-05-31T01:06:10;7.50;;;6.25;;
10132;SDS011;5106;50.926;7.080;2023-05-31T01:08:36;7.72;;;5.88;;
10132;SDS011;5106;50.926;7.080;2023-05-31T01:11:09;7.50;;;6.38;;
10132;SDS011;5106;50.926;7.080;2023-05-31T01:13:48;9.82;;;6.03;;
10132;SDS011;5106;50.926;7.080;2023-05-31T01:16:26;7.55;;;6.15;;
10132;SDS011;5106;50.926;7.080;2023-05-31T01:19:01;8.23;;;6.10;;
10132;SDS011;5106;50.926;7.080;2023-05-31T01:21:39;11.05;;;6.25;;
10132;SDS011;5106;50.926;7.080;2023-05-31T01:26:50;9.43;;;5.90;;
10132;SDS011;5106;50.926;7.080;2023-05-31T01:29:19;6.30;;;5.55;;
10132;SDS011;5106;50.926;7.080;2023-05-31T01:31:47;7.85;;;5.55;;
10132;SDS011;5106;50.926;7.080;2023-05-31T01:34:16;9.55;;;6.07;;
10132;SDS011;5106;50.926;7.080;2023-05-31T01:36:41;8.43;;;6.18;;
10132;SDS011;5106;50.926;7.080;2023-05-31T01:39:07;7.97;;;6.25;;
10132;SDS011;5106;50.926;7.080;2023-05-31T01:41:36;8.75;;;6.28;;
10132;SDS011;5106;50.926;7.080;2023-05-31T01:44:05;7.85;;;5.95;;
10132;SDS011;5106;50.926;7.080;2023-05-31T01:46:32;9.98;;;6.15;;
10132;SDS011;5106;50.926;7.080;2023-05-31T01:48:57;8.30;;;6.47;;
10132;SDS011;5106;50.926;7.080;2023-05-31T01:51:24;8.60;;;6.60;;
10132;SDS011;5106;50.926;7.080;2023-05-31T01:53:51;9.18;;;6.28;;
10132;SDS011;5106;50.926;7.080;2023-05-31T01:56:18;9.75;;;6.28;;
10132;SDS011;5106;50.926;7.080;2023-05-31T01:58:45;7.85;;;6.13;;
10132;SDS011;5106;50.926;7.080;2023-05-31T02:01:14;8.55;;;6.10;;
10132;SDS011;5106;50.926;7.080;2023-05-31T02:03:41;8.40;;;6.13;;
10132;SDS011;5106;50.926;7.080;2023-05-31T02:06:07;8.52;;;6.30;;
10132;SDS011;5106;50.926;7.080;2023-05-31T02:08:33;9.00;;;6.28;;
10132;SDS011;5106;50.926;7.080;2023-05-31T02:10:58;9.95;;;6.32;;
10132;SDS011;5106;50.926;7.080;2023-05-31T02:13:26;10.50;;;6.38;;
10132;SDS011;5106;50.926;7.080;2023-05-31T02:15:52;9.80;;;6.25;;
10132;SDS011;5106;50.926;7.080;2023-05-31T02:18:22;8.55;;;6.32;;
10132;SDS011;5106;50.926;7.080;2023-05-31T02:20:48;10.50;;;6.32;;
10132;SDS011;5106;50.926;7.080;2023-05-31T02:23:13;9.02;;;6.05;;
10132;SDS011;5106;50.926;7.080;2023-05-31T02:25:39;7.80;;;6.22;;
10132;SDS011;5106;50.926;7.080;2023-05-31T02:28:05;10.13;;;6.30;;
10132;SDS011;5106;50.926;7.080;2023-05-31T02:30:31;7.47;;;6.18;;
10132;SDS011;5106;50.926;7.080;2023-05-31T02:32:58;10.98;;;6.18;;
10132;SDS011;5106;50.926;7.080;2023-05-31T02:35:25;7.30;;;6.43;;
10132;SDS011;5106;50.926;7.080;2023-05-31T02:37:50;7.50;;;6.00;;
10132;SDS011;5106;50.926;7.080;2023-05-31T02:40:16;6.53;;;5.90;;
10132;SDS011;5106;50.926;7.080;2023-05-31T02:42:42;8.63;;;6.13;;
10132;SDS011;5106;50.926;7.080;2023-05-31T02:45:08;7.15;;;6.13;;
10132;SDS011;5106;50.926;7.080;2023-05-31T02:47:36;8.85;;;6.25;;
10132;SDS011;5106;50.926;7.080;2023-05-31T02:50:03;8.20;;;5.80;;
10132;SDS011;5106;50.926;7.080;2023-05-31T02:52:33;9.13;;;6.70;;
10132;SDS011;5106;50.926;7.080;2023-05-31T02:54:59;6.88;;;5.90;;
10132;SDS011;5106;50.926;7.080;2023-05-31T02:57:25;8.75;;;6.13;;
10132;SDS011;5106;50.926;7.080;2023-05-31T02:59:53;7.65;;;6.00;;
10132;SDS011;5106;50.926;7.080;2023-05-31T03:02:23;7.78;;;5.85;;
10132;SDS011;5106;50.926;7.080;2023-05-31T03:04:49;7.03;;;5.55;;
10132;SDS011;5106;50.926;7.080;2023-05-31T03:07:15;7.32;;;5.55;;
10132;SDS011;5106;50.926;7.080;2023-05-31T03:09:42;7.90;;;5.50;;
10132;SDS011;5106;50.926;7.080;2023-05-31T03:12:07;7.40;;;5.95;;
10132;SDS011;5106;50.926;7.080;2023-05-31T03:14:34;6.40;;;5.72;;
10132;SDS011;5106;50.926;7.080;2023-05-31T03:16:59;7.18;;;6.03;;
10132;SDS011;5106;50.926;7.080;2023-05-31T03:19:26;7.13;;;5.88;;
10132;SDS011;5106;50.926;7.080;2023-05-31T03:21:51;7.30;;;5.72;;
10132;SDS011;5106;50.926;7.080;2023-05-31T03:24:17;7.88;;;5.82;;
10132;SDS011;5106;50.926;7.080;2023-05-31T03:26:43;7.97;;;6.10;;
10132;SDS011;5106;50.926;7.080;2023-05-31T03:29:09;8.38;;;6.82;;
10132;SDS011;5106;50.926;7.080;2023-05-31T03:31:35;7.30;;;5.47;;
10132;SDS011;5106;50.926;7.080;2023-05-31T03:34:00;7.97;;;5.55;;
10132;SDS011;5106;50.926;7.080;2023-05-31T03:36:26;7.70;;;5.72;;
10132;SDS011;5106;50.926;7.080;2023-05-31T03:38:52;8.15;;;6.10;;
10132;SDS011;5106;50.926;7.080;2023-05-31T03:41:17;10.80;;;6.00;;
10132;SDS011;5106;50.926;7.080;2023-05-31T03:43:43;7.38;;;5.88;;
10132;SDS011;5106;50.926;7.080;2023-05-31T03:46:08;8.18;;;6.25;;
10132;SDS011;5106;50.926;7.080;2023-05-31T03:48:34;7.75;;;5.97;;
10132;SDS011;5106;50.926;7.080;2023-05-31T03:51:00;6.97;;;6.00;;
10132;SDS011;5106;50.926;7.080;2023-05-31T03:53:26;11.50;;;5.63;;
10132;SDS011;5106;50.926;7.080;2023-05-31T03:55:51;8.32;;;5.65;;
10132;SDS011;5106;50.926;7.080;2023-05-31T03:58:17;7.78;;;5.88;;
10132;SDS011;5106;50.926;7.080;2023-05-31T04:00:45;8.43;;;6.00;;
10132;SDS011;5106;50.926;7.080;2023-05-31T04:03:21;7.60;;;5.93;;
10132;SDS011;5106;50.926;7.080;2023-05-31T04:05:51;6.82;;;5.75;;
10132;SDS011;5106;50.926;7.080;2023-05-31T04:08:25;7.70;;;6.05;;
10132;SDS011;5106;50.926;7.080;2023-05-31T04:10:52;8.70;;;5.97;;
10132;SDS011;5106;50.926;7.080;2023-05-31T04:13:31;7.60;;;5.88;;
10132;SDS011;5106;50.926;7.080;2023-05-31T04:16:07;9.15;;;5.68;;
10132;SDS011;5106;50.926;7.080;2023-05-31T04:18:33;8.00;;;5.78;;
10132;SDS011;5106;50.926;7.080;2023-05-31T04:21:00;6.47;;;5.50;;
10132;SDS011;5106;50.926;7.080;2023-05-31T04:23:26;9.02;;;5.72;;
10132;SDS011;5106;50.926;7.080;2023-05-31T04:25:52;10.40;;;6.30;;
10132;SDS011;5106;50.926;7.080;2023-05-31T04:28:17;7.63;;;5.60;;
10132;SDS011;5106;50.926;7.080;2023-05-31T04:30:44;7.03;;;6.18;;
10132;SDS011;5106;50.926;7.080;2023-05-31T04:33:10;10.38;;;6.38;;
10132;SDS011;5106;50.926;7.080;2023-05-31T04:35:36;6.80;;;5.60;;
10132;SDS011;5106;50.926;7.080;2023-05-31T04:38:02;9.52;;;6.60;;
10132;SDS011;5106;50.926;7.080;2023-05-31T04:40:27;9.82;;;6.20;;
10132;SDS011;5106;50.926;7.080;2023-05-31T04:42:59;10.07;;;6.65;;
10132;SDS011;5106;50.926;7.080;2023-05-31T04:45:28;9.98;;;6.30;;
10132;SDS011;5106;50.926;7.080;2023-05-31T04:47:55;6.75;;;5.82;;
10132;SDS011;5106;50.926;7.080;2023-05-31T04:50:22;9.55;;;5.80;;
10132;SDS011;5106;50.926;7.080;2023-05-31T04:52:48;9.98;;;6.78;;
10132;SDS011;5106;50.926;7.080;2023-05-31T04:55:13;13.90;;;7.03;;
10132;SDS011;5106;50.926;7.080;2023-05-31T04:57:39;15.15;;;6.90;;
10132;SDS011;5106;50.926;7.080;2023-05-31T05:00:05;10.63;;;5.72;;
10132;SDS011;5106;50.926;7.080;2023-05-31T05:02:35;9.05;;;6.03;;
10132;SDS011;5106;50.926;7.080;2023-05-31T05:05:01;6.82;;;5.40;;
10132;SDS011;5106;50.926;7.080;2023-05-31T05:07:28;10.43;;;6.15;;
10132;SDS011;5106;50.926;7.080;2023-05-31T05:09:54;13.68;;;6.65;;
10132;SDS011;5106;50.926;7.080;2023-05-31T05:12:19;8.88;;;6.28;;
10132;SDS011;5106;50.926;7.080;2023-05-31T05:14:45;8.00;;;6.47;;
10132;SDS011;5106;50.926;7.080;2023-05-31T05:17:11;9.32;;;6.40;;
10132;SDS011;5106;50.926;7.080;2023-05-31T05:19:36;8.75;;;6.28;;
10132;SDS011;5106;50.926;7.080;2023-05-31T05:22:02;10.95;;;6.57;;
10132;SDS011;5106;50.926;7.080;2023-05-31T05:24:27;9.13;;;6.43;;
10132;SDS011;5106;50.926;7.080;2023-05-31T05:26:53;9.77;;;6.53;;
10132;SDS011;5106;50.926;7.080;2023-05-31T05:29:18;8.73;;;6.38;;
10132;SDS011;5106;50.926;7.080;2023-05-31T05:31:44;7.13;;;5.63;;
10132;SDS011;5106;50.926;7.080;2023-05-31T05:34:10;8.35;;;5.60;;
10132;SDS011;5106;50.926;7.080;2023-05-31T05:36:35;10.10;;;5.90;;
10132;SDS011;5106;50.926;7.080;2023-05-31T05:39:04;7.53;;;5.40;;
10132;SDS011;5106;50.926;7.080;2023-05-31T05:41:31;8.23;;;5.28;;
10132;SDS011;5106;50.926;7.080;2023-05-31T05:43:56;7.15;;;5.20;;
10132;SDS011;5106;50.926;7.080;2023-05-31T05:46:22;8.48;;;5.07;;
10132;SDS011;5106;50.926;7.080;2023-05-31T05:48:48;8.57;;;5.28;;
10132;SDS011;5106;50.926;7.080;2023-05-31T05:51:13;7.28;;;4.70;;
10132;SDS011;5106;50.926;7.080;2023-05-31T05:53:39;9.70;;;5.00;;
10132;SDS011;5106;50.926;7.080;2023-05-31T05:56:05;8.23;;;4.93;;
10132;SDS011;5106;50.926;7.080;2023-05-31T05:58:30;7.53;;;4.95;;
10132;SDS011;5106;50.926;7.080;2023-05-31T06:00:56;7.85;;;4.63;;
10132;SDS011;5106;50.926;7.080;2023-05-31T06:03:22;7.28;;;4.55;;
10132;SDS011;5106;50.926;7.080;2023-05-31T06:05:51;5.20;;;4.22;;
10132;SDS011;5106;50.926;7.080;2023-05-31T06:08:16;11.35;;;4.45;;
10132;SDS011;5106;50.926;7.080;2023-05-31T06:10:43;7.60;;;4.18;;
10132;SDS011;5106;50.926;7.080;2023-05-31T06:13:08;7.15;;;5.07;;
10132;SDS011;5106;50.926;7.080;2023-05-31T06:15:34;7.57;;;4.88;;
10132;SDS011;5106;50.926;7.080;2023-05-31T06:17:59;5.82;;;4.50;;
10132;SDS011;5106;50.926;7.080;2023-05-31T06:20:25;8.18;;;4.38;;
10132;SDS011;5106;50.926;7.080;2023-05-31T06:22:51;8.63;;;4.40;;
10132;SDS011;5106;50.926;7.080;2023-05-31T06:25:17;8.48;;;4.50;;
10132;SDS011;5106;50.926;7.080;2023-05-31T06:27:44;8.20;;;4.95;;
10132;SDS011;5106;50.926;7.080;2023-05-31T06:30:11;9.93;;;4.53;;
10132;SDS011;5106;50.926;7.080;2023-05-31T06:32:40;5.55;;;4.47;;
10132;SDS011;5106;50.926;7.080;2023-05-31T06:35:05;6.45;;;4.18;;
10132;SDS011;5106;50.926;7.080;2023-05-31T06:37:31;6.88;;;3.70;;
10132;SDS011;5106;50.926;7.080;2023-05-31T06:39:57;7.05;;;4.50;;
10132;SDS011;5106;50.926;7.080;2023-05-31T06:42:22;7.63;;;4.40;;
10132;SDS011;5106;50.926;7.080;2023-05-31T06:44:48;5.85;;;4.28;;
10132;SDS011;5106;50.926;7.080;2023-05-31T06:47:15;7.18;;;4.32;;
10132;SDS011;5106;50.926;7.080;2023-05-31T06:49:41;6.88;;;4.35;;
10132;SDS011;5106;50.926;7.080;2023-05-31T06:52:07;7.05;;;4.03;;
10132;SDS011;5106;50.926;7.080;2023-05-31T06:54:34;5.55;;;4.38;;
10132;SDS011;5106;50.926;7.080;2023-05-31T06:57:01;5.55;;;3.85;;
10132;SDS011;5106;50.926;7.080;2023-05-31T06:59:27;6.88;;;4.43;;
10132;SDS011;5106;50.926;7.080;2023-05-31T07:01:53;6.25;;;4.13;;
10132;SDS011;5106;50.926;7.080;2023-05-31T07:04:19;8.40;;;4.78;;
10132;SDS011;5106;50.926;7.080;2023-05-31T07:06:48;5.90;;;4.30;;
10132;SDS011;5106;50.926;7.080;2023-05-31T07:09:14;9.15;;;4.28;;
10132;SDS011;5106;50.926;7.080;2023-05-31T07:11:40;6.18;;;3.70;;
10132;SDS011;5106;50.926;7.080;2023-05-31T07:14:06;7.18;;;4.18;;
10132;SDS011;5106;50.926;7.080;2023-05-31T07:16:33;6.75;;;3.67;;
10132;SDS011;5106;50.926;7.080;2023-05-31T07:18:58;5.22;;;3.80;;
10132;SDS011;5106;50.926;7.080;2023-05-31T07:21:24;6.10;;;3.40;;
10132;SDS011;5106;50.926;7.080;2023-05-31T07:23:50;8.18;;;3.83;;
10132;SDS011;5106;50.926;7.080;2023-05-31T07:26:16;10.25;;;3.88;;
10132;SDS011;5106;50.926;7.080;2023-05-31T07:28:43;8.32;;;3.83;;
10132;SDS011;5106;50.926;7.080;2023-05-31T07:31:09;5.50;;;3.25;;
10132;SDS011;5106;50.926;7.080;2023-05-31T07:33:34;6.28;;;3.25;;
10132;SDS011;5106;50.926;7.080;2023-05-31T07:36:00;7.53;;;3.40;;
10132;SDS011;5106;50.926;7.080;2023-05-31T07:38:26;5.10;;;3.08;;
10132;SDS011;5106;50.926;7.080;2023-05-31T07:40:51;8.20;;;3.17;;
10132;SDS011;5106;50.926;7.080;2023-05-31T07:43:17;6.57;;;3.20;;
10132;SDS011;5106;50.926;7.080;2023-05-31T07:45:46;5.10;;;2.85;;
10132;SDS011;5106;50.926;7.080;2023-05-31T07:48:16;6.18;;;2.92;;
10132;SDS011;5106;50.926;7.080;2023-05-31T07:50:45;5.57;;;2.97;;
10132;SDS011;5106;50.926;7.080;2023-05-31T07:53:11;3.67;;;2.63;;
10132;SDS011;5106;50.926;7.080;2023-05-31T07:55:36;4.65;;;2.33;;
10132;SDS011;5106;50.926;7.080;2023-05-31T07:58:02;4.38;;;2.55;;
10132;SDS011;5106;50.926;7.080;2023-05-31T08:00:28;4.95;;;2.53;;
10132;SDS011;5106;50.926;7.080;2023-05-31T08:02:54;5.15;;;2.45;;
10132;SDS011;5106;50.926;7.080;2023-05-31T08:05:19;4.47;;;2.53;;
10132;SDS011;5106;50.926;7.080;2023-05-31T08:07:45;3.30;;;2.50;;
10132;SDS011;5106;50.926;7.080;2023-05-31T08:10:12;4.55;;;2.65;;
10132;SDS011;5106;50.926;7.080;2023-05-31T08:12:37;7.25;;;2.70;;
10132;SDS011;5106;50.926;7.080;2023-05-31T08:15:03;2.83;;;2.10;;
10132;SDS011;5106;50.926;7.080;2023-05-31T08:17:29;3.38;;;1.85;;
10132;SDS011;5106;50.926;7.080;2023-05-31T08:19:55;4.00;;;2.10;;
10132;SDS011;5106;50.926;7.080;2023-05-31T08:22:20;3.60;;;2.08;;
10132;SDS011;5106;50.926;7.080;2023-05-31T08:24:46;3.17;;;1.88;;
10132;SDS011;5106;50.926;7.080;2023-05-31T08:27:12;3.65;;;2.33;;
10132;SDS011;5106;50.926;7.080;2023-05-31T08:29:37;6.28;;;2.58;;
10132;SDS011;5106;50.926;7.080;2023-05-31T08:32:03;4.07;;;2.17;;
10132;SDS011;5106;50.926;7.080;2023-05-31T08:34:29;4.15;;;1.85;;
10132;SDS011;5106;50.926;7.080;2023-05-31T08:36:55;4.30;;;2.20;;
10132;SDS011;5106;50.926;7.080;2023-05-31T08:39:20;3.45;;;2.38;;
10132;SDS011;5106;50.926;7.080;2023-05-31T08:41:58;4.72;;;2.10;;
10132;SDS011;5106;50.926;7.080;2023-05-31T08:44:26;3.50;;;2.15;;
10132;SDS011;5106;50.926;7.080;2023-05-31T08:46:53;4.53;;;2.00;;
10132;SDS011;5106;50.926;7.080;2023-05-31T08:49:30;3.70;;;2.25;;
10132;SDS011;5106;50.926;7.080;2023-05-31T08:51:59;4.35;;;2.00;;
10132;SDS011;5106;50.926;7.080;2023-05-31T08:54:25;3.85;;;2.10;;
10132;SDS011;5106;50.926;7.080;2023-05-31T08:56:51;4.35;;;2.28;;
10132;SDS011;5106;50.926;7.080;2023-05-31T08:59:18;4.38;;;2.22;;
10132;SDS011;5106;50.926;7.080;2023-05-31T09:01:44;4.43;;;1.98;;
10132;SDS011;5106;50.926;7.080;2023-05-31T09:04:12;2.55;;;1.92;;
10132;SDS011;5106;50.926;7.080;2023-05-31T09:06:39;5.82;;;2.13;;
10132;SDS011;5106;50.926;7.080;2023-05-31T09:09:05;3.70;;;1.90;;
10132;SDS011;5106;50.926;7.080;2023-05-31T09:11:33;4.75;;;1.88;;
10132;SDS011;5106;50.926;7.080;2023-05-31T09:14:03;4.57;;;1.77;;
10132;SDS011;5106;50.926;7.080;2023-05-31T09:16:29;3.90;;;2.03;;
10132;SDS011;5106;50.926;7.080;2023-05-31T09:19:01;3.78;;;1.92;;
10132;SDS011;5106;50.926;7.080;2023-05-31T09:21:40;3.80;;;2.10;;
10132;SDS011;5106;50.926;7.080;2023-05-31T09:24:06;3.13;;;1.95;;
10132;SDS011;5106;50.926;7.080;2023-05-31T09:26:33;5.00;;;2.35;;
10132;SDS011;5106;50.926;7.080;2023-05-31T09:28:59;5.43;;;2.50;;
10132;SDS011;5106;50.926;7.080;2023-05-31T09:31:25;3.25;;;1.80;;
10132;SDS011;5106;50.926;7.080;2023-05-31T09:33:52;3.20;;;2.22;;
10132;SDS011;5106;50.926;7.080;2023-05-31T09:36:37;3.35;;;2.00;;
10132;SDS011;5106;50.926;7.080;2023-05-31T09:39:07;2.65;;;1.92;;
10132;SDS011;5106;50.926;7.080;2023-05-31T09:41:33;3.05;;;1.92;;
10132;SDS011;5106;50.926;7.080;2023-05-31T09:43:59;3.17;;;2.00;;
10132;SDS011;5106;50.926;7.080;2023-05-31T09:46:25;4.97;;;2.30;;
10132;SDS011;5106;50.926;7.080;2023-05-31T09:51:27;2.58;;;1.67;;
10132;SDS011;5106;50.926;7.080;2023-05-31T09:53:54;3.33;;;2.20;;
10132;SDS011;5106;50.926;7.080;2023-05-31T09:56:23;2.50;;;2.00;;
10132;SDS011;5106;50.926;7.080;2023-05-31T09:58:50;4.78;;;2.10;;
10132;SDS011;5106;50.926;7.080;2023-05-31T10:01:17;3.78;;;2.03;;
10132;SDS011;5106;50.926;7.080;2023-05-31T10:03:43;5.43;;;2.17;;
10132;SDS011;5106;50.926;7.080;2023-05-31T10:06:09;4.18;;;2.10;;
10132;SDS011;5106;50.926;7.080;2023-05-31T10:08:37;4.18;;;2.20;;
10132;SDS011;5106;50.926;7.080;2023-05-31T10:11:03;2.33;;;1.90;;
10132;SDS011;5106;50.926;7.080;2023-05-31T10:13:29;3.03;;;1.92;;
10132;SDS011;5106;50.926;7.080;2023-05-31T10:15:57;3.88;;;1.90;;
10132;SDS011;5106;50.926;7.080;2023-05-31T10:18:30;3.33;;;2.10;;
10132;SDS011;5106;50.926;7.080;2023-05-31T10:23:57;3.60;;;2.20;;
10132;SDS011;5106;50.926;7.080;2023-05-31T10:26:53;3.20;;;1.98;;
10132;SDS011;5106;50.926;7.080;2023-05-31T10:29:35;8.07;;;2.13;;
10132;SDS011;5106;50.926;7.080;2023-05-31T10:32:06;10.68;;;2.58;;
10132;SDS011;5106;50.926;7.080;2023-05-31T10:34:50;4.07;;;1.88;;
10132;SDS011;5106;50.926;7.080;2023-05-31T10:37:17;5.57;;;2.13;;
10132;SDS011;5106;50.926;7.080;2023-05-31T10:39:54;5.03;;;2.00;;
10132;SDS011;5106;50.926;7.080;2023-05-31T10:46:02;2.60;;;1.73;;
10132;SDS011;5106;50.926;7.080;2023-05-31T10:50:53;3.28;;;2.03;;
10132;SDS011;5106;50.926;7.080;2023-05-31T10:53:27;3.25;;;2.10;;
10132;SDS011;5106;50.926;7.080;2023-05-31T10:56:01;3.92;;;1.98;;
10132;SDS011;5106;50.926;7.080;2023-05-31T10:58:34;4.32;;;1.92;;
10132;SDS011;5106;50.926;7.080;2023-05-31T11:03:32;3.50;;;2.33;;
10132;SDS011;5106;50.926;7.080;2023-05-31T11:06:00;3.65;;;1.92;;
10132;SDS011;5106;50.926;7.080;2023-05-31T11:08:32;3.75;;;1.88;;
10132;SDS011;5106;50.926;7.080;2023-05-31T11:17:20;4.55;;;2.00;;
10132;SDS011;5106;50.926;7.080;2023-05-31T11:19:34;3.25;;;2.05;;
10132;SDS011;5106;50.926;7.080;2023-05-31T11:22:07;6.80;;;2.00;;
10132;SDS011;5106;50.926;7.080;2023-05-31T11:27:38;3.28;;;2.30;;
10132;SDS011;5106;50.926;7.080;2023-05-31T11:30:15;2.53;;;1.92;;
10132;SDS011;5106;50.926;7.080;2023-05-31T11:35:08;3.90;;;1.90;;
10132;SDS011;5106;50.926;7.080;2023-05-31T11:37:38;3.92;;;1.90;;
10132;SDS011;5106;50.926;7.080;2023-05-31T11:40:06;2.88;;;2.03;;
10132;SDS011;5106;50.926;7.080;2023-05-31T11:42:43;3.53;;;2.00;;
10132;SDS011;5106;50.926;7.080;2023-05-31T11:45:10;4.78;;;2.03;;
10132;SDS011;5106;50.926;7.080;2023-05-31T11:50:36;6.10;;;2.25;;
10132;SDS011;5106;50.926;7.080;2023-05-31T11:53:05;3.83;;;1.85;;
10132;SDS011;5106;50.926;7.080;2023-05-31T11:55:31;4.15;;;2.08;;
10132;SDS011;5106;50.926;7.080;2023-05-31T11:57:58;4.35;;;1.95;;
10132;SDS011;5106;50.926;7.080;2023-05-31T12:00:24;3.60;;;1.90;;
10132;SDS011;5106;50.926;7.080;2023-05-31T12:02:51;5.50;;;2.20;;
10132;SDS011;5106;50.926;7.080;2023-05-31T12:05:18;2.53;;;1.80;;
10132;SDS011;5106;50.926;7.080;2023-05-31T12:07:44;3.50;;;1.70;;
10132;SDS011;5106;50.926;7.080;2023-05-31T12:10:10;4.57;;;1.98;;
10132;SDS011;5106;50.926;7.080;2023-05-31T12:12:37;2.67;;;1.73;;
10132;SDS011;5106;50.926;7.080;2023-05-31T12:15:04;3.25;;;1.95;;
10132;SDS011;5106;50.926;7.080;2023-05-31T12:17:30;5.88;;;2.00;;
10132;SDS011;5106;50.926;7.080;2023-05-31T12:19:56;2.67;;;2.05;;
10132;SDS011;5106;50.926;7.080;2023-05-31T12:22:22;3.05;;;1.90;;
10132;SDS011;5106;50.926;7.080;2023-05-31T12:24:52;4.50;;;2.03;;
10132;SDS011;5106;50.926;7.080;2023-05-31T12:27:19;3.55;;;1.83;;
10132;SDS011;5106;50.926;7.080;2023-05-31T12:29:45;3.53;;;1.88;;
10132;SDS011;5106;50.926;7.080;2023-05-31T12:32:11;3.20;;;2.30;;
10132;SDS011;5106;50.926;7.080;2023-05-31T12:34:37;3.67;;;2.05;;
10132;SDS011;5106;50.926;7.080;2023-05-31T12:37:07;4.50;;;1.98;;
10132;SDS011;5106;50.926;7.080;2023-05-31T12:39:34;2.75;;;1.83;;
10132;SDS011;5106;50.926;7.080;2023-05-31T12:42:00;3.08;;;1.98;;
10132;SDS011;5106;50.926;7.080;2023-05-31T12:44:26;3.50;;;2.00;;
10132;SDS011;5106;50.926;7.080;2023-05-31T12:46:58;2.90;;;1.80;;
10132;SDS011;5106;50.926;7.080;2023-05-31T12:49:26;2.53;;;1.67;;
10132;SDS011;5106;50.926;7.080;2023-05-31T12:51:59;4.13;;;2.05;;
10132;SDS011;5106;50.926;7.080;2023-05-31T12:54:29;3.45;;;2.17;;
10132;SDS011;5106;50.926;7.080;2023-05-31T12:56:56;3.45;;;1.90;;
10132;SDS011;5106;50.926;7.080;2023-05-31T12:59:23;3.83;;;2.38;;
10132;SDS011;5106;50.926;7.080;2023-05-31T13:01:49;3.17;;;2.35;;
10132;SDS011;5106;50.926;7.080;2023-05-31T13:04:15;6.22;;;2.70;;
10132;SDS011;5106;50.926;7.080;2023-05-31T13:06:41;5.10;;;2.50;;
10132;SDS011;5106;50.926;7.080;2023-05-31T13:09:07;6.68;;;2.50;;
10132;SDS011;5106;50.926;7.080;2023-05-31T13:14:02;4.45;;;2.40;;
10132;SDS011;5106;50.926;7.080;2023-05-31T13:16:29;6.05;;;2.50;;
10132;SDS011;5106;50.926;7.080;2023-05-31T13:18:58;3.05;;;2.50;;
10132;SDS011;5106;50.926;7.080;2023-05-31T13:21:25;4.15;;;2.30;;
10132;SDS011;5106;50.926;7.080;2023-05-31T13:23:52;3.97;;;2.28;;
10132;SDS011;5106;50.926;7.080;2023-05-31T13:26:17;3.65;;;1.90;;
10132;SDS011;5106;50.926;7.080;2023-05-31T13:28:43;3.78;;;2.30;;
10132;SDS011;5106;50.926;7.080;2023-05-31T13:31:10;3.05;;;2.00;;
10132;SDS011;5106;50.926;7.080;2023-05-31T13:33:38;2.45;;;2.10;;
10132;SDS011;5106;50.926;7.080;2023-05-31T13:36:04;2.47;;;1.85;;
10132;SDS011;5106;50.926;7.080;2023-05-31T13:38:30;4.90;;;2.55;;
10132;SDS011;5106;50.926;7.080;2023-05-31T13:40:55;4.20;;;2.30;;
10132;SDS011;5106;50.926;7.080;2023-05-31T13:43:21;5.15;;;2.63;;
10132;SDS011;5106;50.926;7.080;2023-05-31T13:45:51;3.78;;;2.15;;
10132;SDS011;5106;50.926;7.080;2023-05-31T13:48:17;3.85;;;2.50;;
10132;SDS011;5106;50.926;7.080;2023-05-31T13:50:43;6.57;;;2.55;;
10132;SDS011;5106;50.926;7.080;2023-05-31T13:53:09;7.65;;;2.58;;
10132;SDS011;5106;50.926;7.080;2023-05-31T13:55:35;4.85;;;2.20;;
10132;SDS011;5106;50.926;7.080;2023-05-31T13:58:02;3.38;;;2.15;;
10132;SDS011;5106;50.926;7.080;2023-05-31T14:00:29;5.82;;;2.47;;
10132;SDS011;5106;50.926;7.080;2023-05-31T14:02:56;4.25;;;2.33;;
10132;SDS011;5106;50.926;7.080;2023-05-31T14:05:21;4.75;;;2.17;;
10132;SDS011;5106;50.926;7.080;2023-05-31T14:07:47;6.50;;;2.40;;
10132;SDS011;5106;50.926;7.080;2023-05-31T14:10:14;4.88;;;2.55;;
10132;SDS011;5106;50.926;7.080;2023-05-31T14:12:40;4.57;;;2.28;;
10132;SDS011;5106;50.926;7.080;2023-05-31T14:15:06;4.03;;;2.20;;
10132;SDS011;5106;50.926;7.080;2023-05-31T14:17:33;3.40;;;2.20;;
10132;SDS011;5106;50.926;7.080;2023-05-31T14:19:58;4.80;;;2.22;;
10132;SDS011;5106;50.926;7.080;2023-05-31T14:22:24;5.38;;;2.80;;
10132;SDS011;5106;50.926;7.080;2023-05-31T14:24:50;5.05;;;2.53;;
10132;SDS011;5106;50.926;7.080;2023-05-31T14:27:16;3.97;;;2.47;;
10132;SDS011;5106;50.926;7.080;2023-05-31T14:29:43;3.60;;;2.25;;
10132;SDS011;5106;50.926;7.080;2023-05-31T14:32:09;6.20;;;2.50;;
10132;SDS011;5106;50.926;7.080;2023-05-31T14:34:37;3.38;;;2.00;;
10132;SDS011;5106;50.926;7.080;2023-05-31T14:37:04;6.78;;;2.58;;
10132;SDS011;5106;50.926;7.080;2023-05-31T14:39:30;3.13;;;2.00;;
10132;SDS011;5106;50.926;7.080;2023-05-31T14:41:57;9.53;;;5.37;;
10132;SDS011;5106;50.926;7.080;2023-05-31T14:44:23;6.28;;;2.58;;
10132;SDS011;5106;50.926;7.080;2023-05-31T14:46:49;4.22;;;2.60;;
10132;SDS011;5106;50.926;7.080;2023-05-31T14:49:17;6.28;;;2.40;;
10132;SDS011;5106;50.926;7.080;2023-05-31T14:51:42;5.82;;;2.40;;
10132;SDS011;5106;50.926;7.080;2023-05-31T14:54:08;9.32;;;3.22;;
10132;SDS011;5106;50.926;7.080;2023-05-31T14:56:33;5.00;;;2.13;;
10132;SDS011;5106;50.926;7.080;2023-05-31T14:58:59;5.53;;;2.30;;
10132;SDS011;5106;50.926;7.080;2023-05-31T15:01:24;4.20;;;2.55;;
10132;SDS011;5106;50.926;7.080;2023-05-31T15:03:50;2.97;;;2.05;;
10132;SDS011;5106;50.926;7.080;2023-05-31T15:06:16;4.47;;;2.58;;
10132;SDS011;5106;50.926;7.080;2023-05-31T15:08:42;4.25;;;2.47;;
10132;SDS011;5106;50.926;7.080;2023-05-31T15:11:08;2.88;;;2.10;;
10132;SDS011;5106;50.926;7.080;2023-05-31T15:13:33;5.38;;;1.90;;
10132;SDS011;5106;50.926;7.080;2023-05-31T15:15:59;4.53;;;2.42;;
10132;SDS011;5106;50.926;7.080;2023-05-31T15:18:25;3.33;;;1.92;;
10132;SDS011;5106;50.926;7.080;2023-05-31T15:20:51;2.95;;;2.35;;
10132;SDS011;5106;50.926;7.080;2023-05-31T15:23:17;4.28;;;2.33;;
10132;SDS011;5106;50.926;7.080;2023-05-31T15:25:43;3.47;;;2.00;;
10132;SDS011;5106;50.926;7.080;2023-05-31T15:28:09;5.72;;;2.50;;
10132;SDS011;5106;50.926;7.080;2023-05-31T15:30:35;5.40;;;2.17;;
10132;SDS011;5106;50.926;7.080;2023-05-31T15:33:02;2.95;;;2.22;;